createdAt,value
2018-09-05T00:02:22.709Z,100918.44
2018-09-05T00:07:26.270Z,100915.92
2018-09-05T00:12:30.023Z,100908.50
2018-09-05T00:17:33.670Z,100911.17
2018-09-05T00:22:37.311Z,100902.47
2018-09-05T00:27:41.637Z,100900.44
2018-09-05T00:32:45.366Z,100905.41
2018-09-05T00:37:48.935Z,100904.98
2018-09-05T00:42:52.724Z,100912.59
2018-09-05T00:47:56.912Z,100905.36
2018-09-05T00:53:00.937Z,100903.86
2018-09-05T00:58:04.439Z,100901.77
2018-09-05T01:03:07.981Z,100903.28
2018-09-05T01:08:11.617Z,100901.50
2018-09-05T01:13:15.249Z,100896.78
2018-09-05T01:18:18.790Z,100901.64
2018-09-05T01:23:22.381Z,100899.98
2018-09-05T01:28:26.128Z,100899.30
2018-09-05T01:33:29.878Z,100901.81
2018-09-05T01:38:33.357Z,100898.25
2018-09-05T01:43:36.942Z,100899.73
2018-09-05T01:48:40.629Z,100910.85
2018-09-05T01:53:44.377Z,100908.44
2018-09-05T01:58:48.096Z,100908.63
2018-09-05T02:03:52.211Z,100905.66
2018-09-05T02:08:55.685Z,100904.53
2018-09-05T02:13:59.773Z,100904.94
2018-09-05T02:19:03.261Z,100907.22
2018-09-05T02:24:06.840Z,100902.54
2018-09-05T02:29:10.646Z,100894.43
2018-09-05T02:34:14.150Z,100899.92
2018-09-05T02:39:18.046Z,100902.63
2018-09-05T02:44:23.351Z,100899.36
2018-09-05T02:49:26.944Z,100900.78
2018-09-05T02:54:30.587Z,100901.58
2018-09-05T02:59:34.085Z,100904.37
2018-09-05T03:04:37.947Z,100899.23
2018-09-05T03:09:41.609Z,100897.71
2018-09-05T03:14:45.493Z,100901.85
2018-09-05T03:19:49.022Z,100897.70
2018-09-05T03:24:52.539Z,100903.19
2018-09-05T03:29:56.011Z,100899.20
2018-09-05T03:34:59.890Z,100897.70
2018-09-05T03:40:03.621Z,100900.78
2018-09-05T03:45:08.025Z,100903.91
2018-09-05T03:50:11.506Z,100907.80
2018-09-05T03:55:15.191Z,100902.76
2018-09-05T04:00:34.273Z,100902.82
2018-09-05T04:05:38.011Z,100907.05
2018-09-05T04:10:42.030Z,100907.81
2018-09-05T04:15:46.060Z,100914.69
2018-09-05T04:20:49.621Z,100911.66
2018-09-05T04:25:54.537Z,100915.70
2018-09-05T04:30:58.137Z,100915.80
2018-09-05T04:36:02.462Z,100920.48
2018-09-05T04:41:06.038Z,100918.31
2018-09-05T04:46:09.752Z,100917.31
2018-09-05T04:51:13.983Z,100919.98
2018-09-05T04:56:17.581Z,100918.62
2018-09-05T05:01:21.638Z,100919.77
2018-09-05T05:06:25.715Z,100923.87
2018-09-05T05:11:29.237Z,100925.75
2018-09-05T05:16:32.787Z,100929.78
2018-09-05T05:21:36.283Z,100933.06
2018-09-05T05:26:40.074Z,100931.89
2018-09-05T05:31:43.626Z,100935.84
2018-09-05T05:36:47.621Z,100928.91
2018-09-05T05:41:51.147Z,100927.91
2018-09-05T05:46:54.977Z,100933.66
2018-09-05T05:51:58.612Z,100943.41
2018-09-05T05:57:02.331Z,100940.14
2018-09-05T06:02:06.433Z,100943.48
2018-09-05T06:07:10.057Z,100950.14
2018-09-05T06:12:16.289Z,100948.89
2018-09-05T06:17:20.291Z,100954.88
2018-09-05T06:22:23.798Z,100952.90
2018-09-05T06:27:27.741Z,100953.81
2018-09-05T06:32:31.241Z,100956.11
2018-09-05T06:37:35.263Z,100954.02
2018-09-05T06:42:39.205Z,100954.80
2018-09-05T06:47:42.730Z,100947.45
2018-09-05T06:52:46.257Z,100957.06
2018-09-05T06:57:49.822Z,100955.88
2018-09-05T07:02:53.346Z,100954.70
2018-09-05T07:07:58.176Z,100960.66
2018-09-05T07:13:01.688Z,100962.84
2018-09-05T07:18:05.400Z,100960.52
2018-09-05T07:23:08.993Z,100956.92
2018-09-05T07:28:12.641Z,100967.39
2018-09-05T07:33:16.206Z,100955.27
2018-09-05T07:38:20.282Z,100960.94
2018-09-05T07:43:23.748Z,100965.84
2018-09-05T07:48:27.409Z,100970.64
2018-09-05T07:53:30.935Z,100966.89
2018-09-05T07:58:34.539Z,100968.38
2018-09-05T08:03:38.197Z,100966.84
2018-09-05T08:08:41.920Z,100967.95
2018-09-05T08:13:45.677Z,100971.29
2018-09-05T08:18:49.298Z,100969.67
2018-09-05T08:23:54.041Z,100961.99
2018-09-05T08:28:58.093Z,100962.41
2018-09-05T08:34:02.012Z,100963.22
2018-09-05T08:39:11.634Z,100955.28
2018-09-05T08:44:15.335Z,100957.11
2018-09-05T08:49:18.726Z,100956.53
2018-09-05T08:54:22.172Z,100956.73
2018-09-05T08:59:25.682Z,100955.03
2018-09-05T09:04:29.734Z,100949.45
2018-09-05T09:09:33.400Z,100943.89
2018-09-05T09:14:36.923Z,100936.09
2018-09-05T09:19:40.447Z,100935.52
2018-09-05T09:24:45.205Z,100927.22
2018-09-05T09:29:49.402Z,100931.24
2018-09-05T09:34:52.899Z,100928.52
2018-09-05T09:39:56.456Z,100923.84
2018-09-05T09:45:00.692Z,100932.30
2018-09-05T09:50:04.431Z,100931.62
2018-09-05T09:55:08.653Z,100921.30
2018-09-05T10:00:15.014Z,100923.88
2018-09-05T10:05:23.959Z,100918.68
2018-09-05T10:10:32.715Z,100909.42
2018-09-05T10:15:41.529Z,100903.66
2018-09-05T10:20:45.522Z,100896.33
2018-09-05T10:25:49.896Z,100886.42
2018-09-05T10:30:53.564Z,100891.66
2018-09-05T10:35:57.817Z,100887.27
2018-09-05T10:41:01.439Z,100884.22
2018-09-05T10:46:05.160Z,100882.03
2018-09-05T10:51:09.369Z,100883.92
2018-09-05T10:56:12.975Z,100876.23
2018-09-05T11:01:16.529Z,100880.89
2018-09-05T11:06:20.128Z,100879.75
2018-09-05T11:11:23.783Z,100874.36
2018-09-05T11:16:27.270Z,100871.66
2018-09-05T11:21:30.913Z,100873.23
2018-09-05T11:26:34.353Z,100875.75
2018-09-05T11:31:37.908Z,100876.55
2018-09-05T11:36:41.518Z,100868.42
2018-09-05T11:41:45.097Z,100855.03
2018-09-05T11:46:48.749Z,100857.13
2018-09-05T11:51:52.776Z,100849.28
2018-09-05T11:56:56.364Z,100841.46
2018-09-05T12:02:00.011Z,100838.14
2018-09-05T12:07:03.592Z,100840.50
2018-09-05T12:12:07.212Z,100839.30
2018-09-05T12:17:11.745Z,100832.50
2018-09-05T12:22:15.691Z,100831.84
2018-09-05T12:27:19.205Z,100827.59
2018-09-05T12:32:22.763Z,100818.72
2018-09-05T12:37:26.229Z,100817.45
2018-09-05T12:42:29.932Z,100815.43
2018-09-05T12:47:33.617Z,100814.59
2018-09-05T12:52:37.383Z,100801.92
2018-09-05T12:57:40.867Z,100799.16
2018-09-05T13:02:44.777Z,100787.94
2018-09-05T13:07:48.253Z,100794.43
2018-09-05T13:12:51.844Z,100785.15
2018-09-05T13:17:55.441Z,100780.66
2018-09-05T13:22:58.975Z,100782.02
2018-09-05T13:28:02.474Z,100772.00
2018-09-05T13:33:06.571Z,100768.36
2018-09-05T13:38:10.792Z,100759.12
2018-09-05T13:43:14.540Z,100762.52
2018-09-05T13:48:18.041Z,100761.71
2018-09-05T13:53:21.589Z,100756.56
2018-09-05T13:58:26.849Z,100755.84
2018-09-05T14:03:30.422Z,100748.29
2018-09-05T14:08:33.952Z,100746.83
2018-09-05T14:13:37.517Z,100747.30
2018-09-05T14:18:41.325Z,100751.21
2018-09-05T14:23:45.386Z,100748.66
2018-09-05T14:28:49.550Z,100750.83
2018-09-05T14:33:53.229Z,100744.14
2018-09-05T14:38:56.731Z,100741.19
2018-09-05T14:44:00.309Z,100728.55
2018-09-05T14:49:03.966Z,100724.53
2018-09-05T14:54:07.770Z,100717.38
2018-09-05T14:59:11.429Z,100712.26
2018-09-05T15:04:15.609Z,100711.05
2018-09-05T15:09:19.095Z,100710.42
2018-09-05T15:14:23.002Z,100704.13
2018-09-05T15:19:26.766Z,100709.94
2018-09-05T15:24:30.293Z,100702.03
2018-09-05T15:29:34.092Z,100702.03
2018-09-05T15:34:38.723Z,100704.12
2018-09-05T15:39:42.478Z,100704.91
2018-09-05T15:44:46.032Z,100700.52
2018-09-05T15:49:49.561Z,100696.98
2018-09-05T15:54:53.342Z,100687.98
2018-09-05T15:59:57.059Z,100690.92
2018-09-05T16:05:00.784Z,100687.02
2018-09-05T16:10:04.548Z,100685.80
2018-09-05T16:15:08.344Z,100688.70
2018-09-05T16:20:11.970Z,100693.16
2018-09-05T16:25:16.311Z,100687.50
2018-09-05T16:30:27.961Z,100690.72
2018-09-05T16:35:31.560Z,100685.27
2018-09-05T16:40:35.005Z,100678.82
2018-09-05T16:45:39.440Z,100678.91
2018-09-05T16:50:43.024Z,100677.03
2018-09-05T16:55:46.552Z,100673.23
2018-09-05T17:00:50.223Z,100678.70
2018-09-05T17:05:55.902Z,100680.47
2018-09-05T17:11:00.413Z,100684.06
2018-09-05T17:16:04.178Z,100685.64
2018-09-05T17:21:07.984Z,100687.95
2018-09-05T17:26:12.244Z,100689.34
2018-09-05T17:31:15.995Z,100691.52
2018-09-05T17:36:19.540Z,100691.08
2018-09-05T17:41:23.544Z,100693.46
2018-09-05T17:46:27.293Z,100693.11
2018-09-05T17:51:31.380Z,100686.52
2018-09-05T17:56:35.012Z,100690.97
2018-09-05T18:01:38.892Z,100698.41
2018-09-05T18:06:43.096Z,100698.06
2018-09-05T18:11:46.744Z,100695.33
2018-09-05T18:16:50.220Z,100701.20
2018-09-05T18:21:53.833Z,100703.30
2018-09-05T18:26:57.347Z,100703.77
2018-09-05T18:32:00.857Z,100712.82
2018-09-05T18:37:04.471Z,100712.21
2018-09-05T18:42:07.981Z,100705.68
2018-09-05T18:47:11.515Z,100713.53
2018-09-05T18:52:15.171Z,100720.11
2018-09-05T18:57:18.705Z,100715.63
2018-09-05T19:02:23.569Z,100709.20
2018-09-05T19:07:27.106Z,100716.52
2018-09-05T19:12:30.649Z,100710.75
2018-09-05T19:17:34.152Z,100710.38
2018-09-05T19:22:38.095Z,100708.67
2018-09-05T19:27:42.105Z,100704.74
2018-09-05T19:32:46.924Z,100705.28
2018-09-05T19:37:50.474Z,100694.48
2018-09-05T19:42:54.041Z,100703.70
2018-09-05T19:47:58.097Z,100693.42
2018-09-05T19:53:01.633Z,100695.16
2018-09-05T19:58:05.206Z,100694.48
2018-09-05T20:03:08.748Z,100689.72
2018-09-05T20:08:12.501Z,100690.34
2018-09-05T20:13:16.076Z,100684.29
2018-09-05T20:18:19.555Z,100686.97
2018-09-05T20:23:23.213Z,100687.42
2018-09-05T20:28:26.733Z,100687.17
2018-09-05T20:33:30.271Z,100689.52
2018-09-05T20:38:33.737Z,100683.81
2018-09-05T20:43:38.002Z,100688.00
2018-09-05T20:48:41.687Z,100687.60
2018-09-05T20:53:45.198Z,100686.58
2018-09-05T20:58:48.728Z,100684.27
2018-09-05T21:03:52.531Z,100675.55
2018-09-05T21:08:56.027Z,100679.39
2018-09-05T21:13:59.570Z,100669.12
2018-09-05T21:19:03.345Z,100669.30
2018-09-05T21:24:07.556Z,100676.38
2018-09-05T21:29:11.314Z,100674.02
2018-09-05T21:34:14.861Z,100671.27
2018-09-05T21:39:18.346Z,100673.48
2018-09-05T21:44:21.886Z,100667.62
2018-09-05T21:49:26.702Z,100664.09
2018-09-05T21:54:30.216Z,100670.03
2018-09-05T21:59:33.821Z,100670.50
2018-09-05T22:04:37.329Z,100674.27
2018-09-05T22:09:40.814Z,100670.03
2018-09-05T22:14:44.439Z,100670.14
2018-09-05T22:19:58.203Z,100662.09
2018-09-05T22:25:01.736Z,100659.41
2018-09-05T22:30:05.716Z,100659.73
2018-09-05T22:35:09.963Z,100661.05
2018-09-05T22:40:13.548Z,100656.30
2018-09-05T22:47:32.329Z,100648.20
2018-09-05T22:54:57.161Z,100641.86
2018-09-05T23:02:50.777Z,100640.66
2018-09-05T23:08:36.215Z,100630.22
2018-09-05T23:13:58.444Z,100625.36
2018-09-05T23:19:29.374Z,100619.58
2018-09-05T23:24:32.892Z,100616.95
2018-09-05T23:29:36.446Z,100604.70
2018-09-05T23:34:40.041Z,100593.91
2018-09-05T23:39:44.070Z,100593.09
2018-09-05T23:44:48.179Z,100585.21
2018-09-05T23:49:51.856Z,100586.55
2018-09-05T23:54:55.335Z,100590.63
2018-09-05T23:59:58.975Z,100581.95
